createdAt,value
2018-12-23T00:00:34.703Z,109.00
2018-12-23T00:03:02.985Z,108.20
2018-12-23T00:05:31.300Z,108.80
2018-12-23T00:07:59.597Z,105.80
2018-12-23T00:10:28.063Z,105.00
2018-12-23T00:12:56.421Z,106.00
2018-12-23T00:15:24.740Z,105.80
2018-12-23T00:17:53.039Z,105.60
2018-12-23T00:20:21.335Z,106.40
2018-12-23T00:22:49.723Z,106.00
2018-12-23T00:25:18.090Z,105.00
2018-12-23T00:27:46.469Z,105.60
2018-12-23T00:30:15.884Z,104.20
2018-12-23T00:32:44.265Z,106.20
2018-12-23T00:35:20.082Z,105.80
2018-12-23T00:37:43.043Z,106.40
2018-12-23T00:40:11.325Z,105.00
2018-12-23T00:42:39.689Z,106.80
2018-12-23T00:45:08.208Z,106.40
2018-12-23T00:47:36.488Z,106.60
2018-12-23T00:50:05.791Z,106.80
2018-12-23T00:52:35.300Z,105.40
2018-12-23T00:55:03.767Z,105.60
2018-12-23T00:57:32.080Z,107.20
2018-12-23T01:00:00.409Z,105.40
2018-12-23T01:02:28.776Z,106.80
2018-12-23T01:04:57.075Z,106.00
2018-12-23T01:07:25.488Z,105.60
2018-12-23T01:09:53.772Z,105.40
2018-12-23T01:12:22.079Z,108.20
2018-12-23T01:14:50.383Z,107.20
2018-12-23T01:17:18.695Z,105.00
2018-12-23T01:19:47.072Z,105.60
2018-12-23T01:22:15.479Z,108.00
2018-12-23T01:24:43.788Z,104.60
2018-12-23T01:27:12.102Z,105.00
2018-12-23T01:29:40.478Z,105.60
2018-12-23T01:32:08.832Z,106.20
2018-12-23T01:34:37.389Z,105.60
2018-12-23T01:37:05.831Z,104.60
2018-12-23T01:39:34.216Z,103.40
2018-12-23T01:42:02.599Z,105.00
2018-12-23T01:44:30.905Z,105.00
2018-12-23T01:46:59.211Z,108.00
2018-12-23T01:49:27.509Z,106.20
2018-12-23T01:51:55.914Z,105.00
2018-12-23T01:54:24.215Z,105.40
2018-12-23T01:56:52.600Z,105.00
2018-12-23T01:59:20.901Z,105.40
2018-12-23T02:01:49.208Z,105.00
2018-12-23T02:04:17.587Z,105.00
2018-12-23T02:06:45.990Z,105.00
2018-12-23T02:09:14.369Z,105.40
2018-12-23T02:11:42.760Z,106.00
2018-12-23T02:14:11.057Z,106.00
2018-12-23T02:16:39.517Z,107.00
2018-12-23T02:19:07.884Z,104.20
2018-12-23T02:21:36.355Z,105.60
2018-12-23T02:24:04.739Z,105.20
2018-12-23T02:26:33.048Z,105.80
2018-12-23T02:29:01.445Z,105.00
2018-12-23T02:31:29.803Z,105.00
2018-12-23T02:33:58.203Z,103.40
2018-12-23T02:36:26.521Z,106.00
2018-12-23T02:38:54.809Z,105.00
2018-12-23T02:41:31.265Z,105.40
2018-12-23T02:43:53.454Z,105.60
2018-12-23T02:46:21.747Z,105.20
2018-12-23T02:48:50.120Z,109.00
2018-12-23T02:51:18.458Z,105.60
2018-12-23T02:53:46.754Z,107.20
2018-12-23T02:56:15.037Z,105.00
2018-12-23T02:58:43.377Z,108.60
2018-12-23T03:01:11.888Z,107.20
2018-12-23T03:03:40.252Z,105.20
2018-12-23T03:06:08.583Z,107.00
2018-12-23T03:08:37.035Z,106.20
2018-12-23T03:11:05.342Z,105.40
2018-12-23T03:13:33.659Z,105.60
2018-12-23T03:16:01.960Z,108.00
2018-12-23T03:18:30.423Z,108.20
2018-12-23T03:20:58.825Z,109.00
2018-12-23T03:23:27.142Z,105.00
2018-12-23T03:25:55.537Z,107.20
2018-12-23T03:28:23.941Z,106.60
2018-12-23T03:30:52.247Z,108.00
2018-12-23T03:33:20.738Z,105.80
2018-12-23T03:35:49.028Z,107.20
2018-12-23T03:38:17.421Z,108.20
2018-12-23T03:40:45.723Z,107.60
2018-12-23T03:43:14.024Z,107.60
2018-12-23T03:45:42.317Z,108.00
2018-12-23T03:48:10.614Z,106.00
2018-12-23T03:50:39.035Z,105.40
2018-12-23T03:53:07.429Z,107.60
2018-12-23T03:55:35.823Z,105.00
2018-12-23T03:58:04.121Z,108.20
2018-12-23T04:00:32.465Z,105.60
2018-12-23T04:03:00.854Z,110.20
2018-12-23T04:05:29.145Z,108.00
2018-12-23T04:07:57.545Z,107.00
2018-12-23T04:10:25.917Z,108.40
2018-12-23T04:12:54.239Z,108.00
2018-12-23T04:15:22.540Z,108.40
2018-12-23T04:17:50.949Z,108.00
2018-12-23T04:20:19.465Z,109.40
2018-12-23T04:22:47.924Z,107.60
2018-12-23T04:25:16.780Z,107.20
2018-12-23T04:27:45.172Z,108.80
2018-12-23T04:30:13.573Z,106.00
2018-12-23T04:32:41.908Z,108.20
2018-12-23T04:35:10.303Z,108.20
2018-12-23T04:37:38.669Z,108.60
2018-12-23T04:40:07.039Z,108.80
2018-12-23T04:42:35.343Z,108.00
2018-12-23T04:45:03.788Z,108.80
2018-12-23T04:47:32.095Z,108.20
2018-12-23T04:50:00.395Z,105.80
2018-12-23T04:52:28.762Z,105.60
2018-12-23T04:54:57.066Z,108.00
2018-12-23T04:57:25.385Z,110.00
2018-12-23T04:59:53.671Z,110.20
2018-12-23T05:02:22.068Z,110.00
2018-12-23T05:04:50.412Z,112.60
2018-12-23T05:07:18.862Z,112.40
2018-12-23T05:09:47.174Z,108.80
2018-12-23T05:12:15.518Z,108.40
2018-12-23T05:14:44.803Z,108.60
2018-12-23T05:17:13.233Z,112.00
2018-12-23T05:19:41.650Z,113.20
2018-12-23T05:22:10.024Z,110.00
2018-12-23T05:24:38.431Z,108.80
2018-12-23T05:27:06.832Z,109.80
2018-12-23T05:29:35.203Z,111.00
2018-12-23T05:32:03.500Z,109.60
2018-12-23T05:34:31.827Z,109.00
2018-12-23T05:37:00.116Z,111.00
2018-12-23T05:39:28.405Z,108.40
2018-12-23T05:41:56.719Z,108.40
2018-12-23T05:44:25.002Z,107.60
2018-12-23T05:46:53.306Z,111.60
2018-12-23T05:49:21.616Z,107.80
2018-12-23T05:51:49.908Z,111.00
2018-12-23T05:54:18.346Z,111.20
2018-12-23T05:56:46.661Z,112.00
2018-12-23T05:59:15.013Z,109.80
2018-12-23T06:01:43.305Z,111.40
2018-12-23T06:04:11.718Z,110.60
2018-12-23T06:06:40.128Z,110.00
2018-12-23T06:09:08.428Z,109.20
2018-12-23T06:11:36.756Z,109.80
2018-12-23T06:14:05.069Z,108.40
2018-12-23T06:16:33.357Z,108.80
2018-12-23T06:19:01.714Z,112.20
2018-12-23T06:21:30.014Z,114.80
2018-12-23T06:23:58.322Z,109.00
2018-12-23T06:26:26.648Z,112.40
2018-12-23T06:28:55.617Z,111.40
2018-12-23T06:31:23.907Z,109.00
2018-12-23T06:33:52.300Z,110.20
2018-12-23T06:36:20.593Z,114.60
2018-12-23T06:38:48.900Z,111.20
2018-12-23T06:41:17.315Z,110.60
2018-12-23T06:43:45.713Z,111.20
2018-12-23T06:46:14.005Z,114.00
2018-12-23T06:48:42.313Z,111.60
2018-12-23T06:51:10.703Z,109.00
2018-12-23T06:53:38.992Z,111.00
2018-12-23T06:56:08.133Z,108.40
2018-12-23T06:58:36.443Z,112.00
2018-12-23T07:01:04.767Z,109.80
2018-12-23T07:03:33.411Z,109.00
2018-12-23T07:06:01.761Z,112.60
2018-12-23T07:08:30.058Z,110.60
2018-12-23T07:10:58.408Z,112.20
2018-12-23T07:13:26.731Z,111.40
2018-12-23T07:15:55.024Z,111.00
2018-12-23T07:18:23.515Z,109.00
2018-12-23T07:20:51.812Z,113.20
2018-12-23T07:23:20.219Z,113.40
2018-12-23T07:25:48.539Z,110.00
2018-12-23T07:28:16.894Z,111.80
2018-12-23T07:30:45.187Z,111.00
2018-12-23T07:33:13.564Z,108.80
2018-12-23T07:35:41.890Z,111.40
2018-12-23T07:38:10.334Z,111.60
2018-12-23T07:40:38.688Z,111.00
2018-12-23T07:43:07.028Z,111.20
2018-12-23T07:45:35.357Z,112.00
2018-12-23T07:48:04.587Z,109.00
2018-12-23T07:50:32.899Z,111.80
2018-12-23T07:53:01.297Z,108.80
2018-12-23T07:55:29.606Z,109.00
2018-12-23T07:57:57.927Z,110.60
2018-12-23T08:00:26.447Z,109.40
2018-12-23T08:02:54.812Z,112.00
2018-12-23T08:05:23.157Z,108.00
2018-12-23T08:07:51.475Z,108.40
2018-12-23T08:10:19.858Z,109.80
2018-12-23T08:12:48.153Z,114.20
2018-12-23T08:15:16.474Z,111.00
2018-12-23T08:17:44.788Z,109.40
2018-12-23T08:20:13.260Z,109.00
2018-12-23T08:22:41.626Z,111.40
2018-12-23T08:25:09.931Z,109.80
2018-12-23T08:27:38.243Z,112.00
2018-12-23T08:30:06.647Z,109.80
2018-12-23T08:32:34.953Z,111.80
2018-12-23T08:35:03.532Z,116.60
2018-12-23T08:37:31.813Z,115.40
2018-12-23T08:40:00.181Z,110.40
2018-12-23T08:42:28.537Z,112.00
2018-12-23T08:44:56.855Z,111.60
2018-12-23T08:47:25.183Z,111.60
2018-12-23T08:49:53.530Z,111.60
2018-12-23T08:52:21.831Z,112.80
2018-12-23T08:54:50.130Z,111.80
2018-12-23T08:57:18.475Z,111.00
2018-12-23T08:59:46.801Z,112.40
2018-12-23T09:02:15.200Z,112.80
2018-12-23T09:04:43.598Z,114.00
2018-12-23T09:07:11.915Z,114.00
2018-12-23T09:09:40.313Z,114.00
2018-12-23T09:12:08.649Z,114.60
2018-12-23T09:14:36.941Z,115.20
2018-12-23T09:17:05.256Z,114.80
2018-12-23T09:19:33.560Z,115.00
2018-12-23T09:22:01.851Z,114.00
2018-12-23T09:24:30.161Z,114.40
2018-12-23T09:26:58.575Z,114.60
2018-12-23T09:29:26.950Z,113.60
2018-12-23T09:31:55.451Z,112.80
2018-12-23T09:34:23.750Z,112.40
2018-12-23T09:36:52.053Z,111.20
2018-12-23T09:39:20.452Z,114.20
2018-12-23T09:41:48.769Z,112.00
2018-12-23T09:44:17.082Z,113.60
2018-12-23T09:46:45.403Z,115.00
2018-12-23T09:49:13.714Z,116.20
2018-12-23T09:51:42.028Z,114.80
2018-12-23T09:54:10.476Z,117.60
2018-12-23T09:56:38.767Z,115.00
2018-12-23T09:59:07.072Z,116.60
2018-12-23T10:01:35.375Z,115.00
2018-12-23T10:04:03.758Z,117.80
2018-12-23T10:06:32.081Z,115.40
2018-12-23T10:09:00.401Z,115.00
2018-12-23T10:11:28.708Z,119.40
2018-12-23T10:13:57.109Z,117.80
2018-12-23T10:16:25.436Z,116.00
2018-12-23T10:18:53.818Z,120.60
2018-12-23T10:21:22.106Z,114.20
2018-12-23T10:23:50.441Z,115.80
2018-12-23T10:26:18.823Z,114.80
2018-12-23T10:28:47.211Z,116.20
2018-12-23T10:31:15.626Z,120.60
2018-12-23T10:33:43.943Z,121.20
2018-12-23T10:36:12.335Z,117.00
2018-12-23T10:38:40.708Z,114.40
2018-12-23T10:41:09.152Z,121.00
2018-12-23T10:43:37.576Z,115.40
2018-12-23T10:46:05.918Z,118.00
2018-12-23T10:48:34.314Z,118.00
2018-12-23T10:51:03.287Z,117.20
2018-12-23T10:53:31.637Z,119.40
2018-12-23T10:56:00.085Z,119.60
2018-12-23T10:58:28.456Z,121.60
2018-12-23T11:00:56.811Z,121.20
2018-12-23T11:03:25.118Z,114.80
2018-12-23T11:05:53.443Z,118.20
2018-12-23T11:08:26.915Z,118.40
2018-12-23T11:10:52.177Z,119.60
2018-12-23T11:13:20.492Z,115.60
2018-12-23T11:15:48.852Z,116.80
2018-12-23T11:18:17.249Z,116.60
2018-12-23T11:20:45.567Z,117.60
2018-12-23T11:23:13.925Z,119.40
2018-12-23T11:25:42.225Z,120.20
2018-12-23T11:29:28.234Z,117.00
2018-12-23T11:31:56.525Z,117.00
2018-12-23T11:34:24.841Z,117.60
2018-12-23T11:36:53.257Z,117.60
2018-12-23T11:39:21.577Z,117.20
2018-12-23T11:45:21.816Z,143.00
2018-12-23T11:47:50.216Z,125.40
2018-12-23T11:50:18.588Z,119.60
2018-12-23T11:52:47.017Z,119.80
2018-12-23T11:55:15.311Z,118.00
2018-12-23T11:57:43.612Z,121.00
2018-12-23T12:00:11.997Z,118.00
2018-12-23T12:02:40.328Z,114.80
2018-12-23T12:05:08.656Z,116.20
2018-12-23T12:07:36.985Z,115.40
2018-12-23T12:10:05.923Z,114.20
2018-12-23T12:12:34.310Z,117.00
2018-12-23T12:15:02.870Z,119.00
2018-12-23T12:17:31.239Z,115.00
2018-12-23T12:19:59.541Z,115.40
2018-12-23T12:22:27.842Z,115.00
2018-12-23T12:24:56.169Z,117.00
2018-12-23T12:27:24.496Z,112.40
2018-12-23T12:29:52.840Z,114.00
2018-12-23T12:32:21.160Z,116.80
2018-12-23T12:34:49.492Z,115.40
2018-12-23T12:37:17.991Z,117.60
2018-12-23T12:39:46.332Z,115.00
2018-12-23T12:42:14.723Z,114.00
2018-12-23T12:44:43.059Z,113.20
2018-12-23T12:47:11.463Z,115.00
2018-12-23T12:49:39.757Z,113.60
2018-12-23T12:52:08.096Z,115.40
2018-12-23T12:54:36.485Z,114.40
2018-12-23T12:57:04.815Z,117.00
2018-12-23T12:59:33.143Z,112.80
2018-12-23T13:02:01.428Z,113.60
2018-12-23T13:04:29.848Z,114.00
2018-12-23T13:06:58.161Z,114.00
2018-12-23T13:09:26.453Z,114.00
2018-12-23T13:11:54.733Z,114.20
2018-12-23T13:14:23.087Z,114.20
2018-12-23T13:16:51.516Z,114.60
2018-12-23T13:19:20.029Z,112.80
2018-12-23T13:21:48.421Z,114.20
2018-12-23T13:24:16.713Z,114.60
2018-12-23T13:26:45.124Z,125.60
2018-12-23T13:29:13.508Z,124.20
2018-12-23T13:31:41.847Z,116.80
2018-12-23T13:34:10.156Z,114.00
2018-12-23T13:36:38.476Z,115.00
2018-12-23T13:39:09.350Z,114.80
2018-12-23T13:42:51.875Z,112.40
2018-12-23T13:46:02.096Z,114.00
2018-12-23T13:50:44.674Z,114.20
2018-12-23T13:54:19.941Z,112.00
2018-12-23T13:59:00.542Z,111.00
2018-12-23T14:01:43.531Z,112.00
2018-12-23T14:04:36.792Z,111.80
2018-12-23T14:07:48.812Z,114.20
2018-12-23T14:10:26.104Z,112.80
2018-12-23T14:12:54.416Z,112.20
2018-12-23T14:15:22.702Z,112.80
2018-12-23T14:17:51.096Z,112.40
2018-12-23T14:20:19.386Z,112.80
2018-12-23T14:22:47.685Z,112.00
2018-12-23T14:25:16.119Z,114.80
2018-12-23T14:27:44.416Z,113.20
2018-12-23T14:30:12.716Z,115.00
2018-12-23T14:32:41.025Z,112.80
2018-12-23T14:35:09.336Z,112.00
2018-12-23T14:37:37.643Z,112.40
2018-12-23T14:40:06.392Z,112.00
2018-12-23T14:42:34.695Z,114.60
2018-12-23T14:45:03.004Z,113.60
2018-12-23T14:47:31.319Z,111.20
2018-12-23T14:49:59.635Z,110.20
2018-12-23T14:52:28.032Z,111.20
2018-12-23T14:54:56.352Z,115.40
2018-12-23T14:57:24.736Z,114.60
2018-12-23T14:59:53.030Z,116.00
2018-12-23T15:02:21.344Z,114.00
2018-12-23T15:04:49.651Z,111.40
2018-12-23T15:07:17.954Z,111.00
2018-12-23T15:09:46.357Z,112.80
2018-12-23T15:12:14.652Z,110.40
2018-12-23T15:14:42.926Z,109.00
2018-12-23T15:17:11.235Z,109.00
2018-12-23T15:19:39.965Z,111.40
2018-12-23T15:22:08.365Z,111.60
2018-12-23T15:24:36.683Z,113.60
2018-12-23T15:27:05.031Z,113.60
2018-12-23T15:29:33.344Z,111.20
2018-12-23T15:32:01.724Z,112.00
2018-12-23T15:34:30.022Z,111.80
2018-12-23T15:36:58.304Z,111.00
2018-12-23T15:39:26.633Z,109.40
2018-12-23T15:41:54.916Z,111.80
2018-12-23T15:44:23.232Z,111.20
2018-12-23T15:46:51.540Z,111.40
2018-12-23T15:49:19.824Z,110.40
2018-12-23T15:51:48.130Z,108.80
2018-12-23T15:54:16.428Z,109.80
2018-12-23T15:56:44.817Z,109.00
2018-12-23T15:59:13.101Z,109.00
2018-12-23T16:01:41.407Z,109.40
2018-12-23T16:04:09.713Z,112.00
2018-12-23T16:06:38.000Z,109.00
2018-12-23T16:09:07.805Z,108.60
2018-12-23T16:11:36.185Z,109.80
2018-12-23T16:14:04.556Z,109.00
2018-12-23T16:16:33.071Z,109.40
2018-12-23T16:19:01.892Z,109.00
2018-12-23T16:21:30.237Z,109.00
2018-12-23T16:23:58.680Z,108.40
2018-12-23T16:26:26.953Z,109.80
2018-12-23T16:28:55.316Z,109.40
2018-12-23T16:31:23.613Z,109.00
2018-12-23T16:33:51.909Z,108.00
2018-12-23T16:36:20.215Z,109.00
2018-12-23T16:38:48.655Z,108.80
2018-12-23T16:41:16.954Z,111.00
2018-12-23T16:43:45.248Z,108.00
2018-12-23T16:46:13.559Z,108.20
2018-12-23T16:48:41.943Z,108.00
2018-12-23T16:51:10.311Z,109.00
2018-12-23T16:53:38.718Z,108.60
2018-12-23T16:56:07.071Z,110.20
2018-12-23T16:58:35.393Z,108.80
2018-12-23T17:01:03.804Z,108.00
2018-12-23T17:03:32.116Z,108.80
2018-12-23T17:06:00.497Z,110.80
2018-12-23T17:08:28.852Z,108.00
2018-12-23T17:10:57.349Z,111.80
2018-12-23T17:13:25.639Z,108.40
2018-12-23T17:15:53.969Z,108.00
2018-12-23T17:18:23.088Z,109.00
2018-12-23T17:20:51.471Z,110.20
2018-12-23T17:23:19.917Z,110.60
2018-12-23T17:25:48.203Z,106.00
2018-12-23T17:28:16.576Z,107.00
2018-12-23T17:30:44.956Z,108.60
2018-12-23T17:33:13.325Z,107.60
2018-12-23T17:35:41.616Z,105.00
2018-12-23T17:38:09.907Z,108.00
2018-12-23T17:40:38.306Z,105.40
2018-12-23T17:43:06.695Z,107.00
2018-12-23T17:45:35.115Z,105.80
2018-12-23T17:48:03.486Z,105.00
2018-12-23T17:50:31.864Z,106.20
2018-12-23T17:53:01.158Z,105.00
2018-12-23T17:55:29.616Z,105.00
2018-12-23T17:57:57.901Z,105.80
2018-12-23T18:00:26.395Z,105.40
2018-12-23T18:02:54.692Z,105.80
2018-12-23T18:05:23.024Z,108.00
2018-12-23T18:07:51.360Z,108.00
2018-12-23T18:10:24.998Z,111.00
2018-12-23T18:12:50.422Z,104.60
2018-12-23T18:15:18.853Z,103.00
2018-12-23T18:17:47.263Z,102.80
2018-12-23T18:20:15.559Z,102.40
2018-12-23T18:22:43.857Z,104.20
2018-12-23T18:25:12.180Z,103.00
2018-12-23T18:27:40.476Z,102.20
2018-12-23T18:30:08.956Z,102.60
2018-12-23T18:32:37.263Z,112.00
2018-12-23T18:35:05.740Z,101.60
2018-12-23T18:37:34.063Z,103.00
2018-12-23T18:40:02.371Z,102.40
2018-12-23T18:42:30.664Z,103.40
2018-12-23T18:44:58.961Z,100.80
2018-12-23T18:47:27.241Z,105.40
2018-12-23T18:49:55.555Z,104.20
2018-12-23T18:52:23.867Z,105.00
2018-12-23T18:54:52.145Z,101.20
2018-12-23T18:57:21.699Z,105.80
2018-12-23T18:59:51.097Z,102.60
2018-12-23T19:02:33.877Z,104.60
2018-12-23T19:05:02.231Z,103.40
2018-12-23T19:07:30.536Z,100.80
2018-12-23T19:10:11.437Z,103.40
2018-12-23T19:13:05.503Z,103.00
2018-12-23T19:16:09.827Z,104.60
2018-12-23T19:18:56.112Z,102.20
2018-12-23T19:21:35.256Z,102.40
2018-12-23T19:26:17.572Z,106.00
2018-12-23T19:28:55.268Z,108.80
2018-12-23T19:32:06.459Z,102.20
2018-12-23T19:34:45.983Z,103.80
2018-12-23T19:37:27.912Z,104.20
2018-12-23T19:40:14.267Z,106.00
2018-12-23T19:43:09.279Z,105.00
2018-12-23T19:46:04.234Z,107.60
2018-12-23T19:50:44.906Z,103.80
2018-12-23T19:53:58.103Z,102.60
2018-12-23T19:56:37.118Z,105.60
2018-12-23T19:59:19.521Z,107.20
2018-12-23T20:02:33.631Z,106.20
2018-12-23T20:06:44.833Z,105.20
2018-12-23T20:09:24.054Z,105.60
2018-12-23T20:12:19.282Z,104.60
2018-12-23T20:14:57.622Z,105.80
2018-12-23T20:17:48.628Z,105.40
2018-12-23T20:20:33.695Z,103.40
2018-12-23T20:23:45.045Z,104.60
2018-12-23T20:26:53.733Z,105.20
2018-12-23T20:33:40.315Z,106.80
2018-12-23T20:36:25.219Z,102.40
2018-12-23T20:39:06.519Z,103.20
2018-12-23T20:43:50.977Z,102.00
2018-12-23T20:50:47.864Z,101.60
2018-12-23T20:53:27.385Z,103.00
2018-12-23T20:56:13.307Z,102.00
2018-12-23T20:58:58.552Z,102.60
2018-12-23T21:01:41.551Z,103.00
2018-12-23T21:04:20.833Z,104.20
2018-12-23T21:07:12.178Z,103.20
2018-12-23T21:09:55.375Z,104.60
2018-12-23T21:12:36.667Z,102.00
2018-12-23T21:15:14.059Z,103.00
2018-12-23T21:17:59.444Z,102.80
2018-12-23T21:20:40.659Z,102.00
2018-12-23T21:23:20.027Z,100.40
2018-12-23T21:28:02.555Z,104.20
2018-12-23T21:30:48.717Z,100.80
2018-12-23T21:35:30.897Z,100.00
2018-12-23T21:38:12.247Z,101.60
2018-12-23T21:40:54.700Z,106.40
2018-12-23T21:43:38.769Z,103.80
2018-12-23T21:46:18.984Z,101.80
2018-12-23T21:49:08.135Z,102.00
2018-12-23T21:51:49.203Z,100.80
2018-12-23T21:54:38.216Z,100.80
2018-12-23T21:59:21.771Z,101.60
2018-12-23T22:03:32.483Z,99.40
2018-12-23T22:06:13.614Z,98.20
2018-12-23T22:10:54.193Z,98.20
2018-12-23T22:13:24.843Z,99.40
2018-12-23T22:15:54.025Z,99.00
2018-12-23T22:18:22.466Z,100.80
2018-12-23T22:20:50.784Z,99.80
2018-12-23T22:23:19.187Z,100.80
2018-12-23T22:25:47.800Z,100.00
2018-12-23T22:28:16.197Z,102.00
2018-12-23T22:30:44.572Z,99.80
2018-12-23T22:33:12.979Z,97.40
2018-12-23T22:35:41.318Z,100.00
2018-12-23T22:38:09.623Z,99.60
2018-12-23T22:40:40.452Z,100.40
2018-12-23T22:43:08.784Z,100.00
2018-12-23T22:45:37.057Z,100.40
2018-12-23T22:48:05.441Z,99.00
2018-12-23T22:50:33.858Z,100.00
2018-12-23T22:53:02.328Z,100.00
2018-12-23T22:55:30.728Z,100.00
2018-12-23T22:57:59.059Z,99.80
2018-12-23T23:00:31.350Z,100.40
2018-12-23T23:02:59.652Z,99.80
2018-12-23T23:05:28.039Z,99.60
2018-12-23T23:07:56.352Z,99.80
2018-12-23T23:10:24.656Z,100.00
2018-12-23T23:12:52.995Z,100.00
2018-12-23T23:15:21.429Z,100.00
2018-12-23T23:17:49.719Z,100.00
2018-12-23T23:20:18.020Z,99.80
2018-12-23T23:22:46.311Z,101.20
2018-12-23T23:25:14.596Z,100.00
2018-12-23T23:27:42.899Z,100.00
2018-12-23T23:30:11.213Z,99.80
2018-12-23T23:32:39.539Z,99.80
2018-12-23T23:35:07.864Z,100.00
2018-12-23T23:37:36.151Z,100.00
2018-12-23T23:40:04.633Z,98.60
2018-12-23T23:42:32.995Z,100.00
2018-12-23T23:45:01.319Z,98.80
2018-12-23T23:47:29.703Z,100.00
2018-12-23T23:49:58.031Z,100.00
2018-12-23T23:52:26.338Z,99.40
2018-12-23T23:54:54.676Z,99.20
2018-12-23T23:57:22.965Z,99.20
2018-12-23T23:59:51.242Z,99.80
